createdAt,value
2023-02-13T00:01:13.196Z,9.50
2023-02-13T00:03:43.243Z,9.61
2023-02-13T00:06:14.300Z,9.63
2023-02-13T00:08:44.151Z,9.79
2023-02-13T00:11:14.116Z,9.32
2023-02-13T00:13:44.095Z,9.55
2023-02-13T00:16:16.689Z,9.02
2023-02-13T00:18:46.537Z,9.80
2023-02-13T00:21:17.152Z,9.59
2023-02-13T00:23:48.701Z,9.37
2023-02-13T00:26:20.097Z,8.84
2023-02-13T00:28:50.527Z,9.85
2023-02-13T00:31:24.637Z,9.41
2023-02-13T00:33:54.594Z,8.92
2023-02-13T00:36:25.966Z,9.28
2023-02-13T00:42:32.074Z,9.19
2023-02-13T00:45:04.192Z,9.17
2023-02-13T00:56:53.148Z,9.53
2023-02-13T01:01:20.911Z,9.69
2023-02-13T01:29:53.620Z,7.37
2023-02-13T01:34:07.343Z,8.42
2023-02-13T01:42:01.727Z,7.71
2023-02-13T01:45:23.277Z,9.38
2023-02-13T01:52:30.977Z,8.66
2023-02-13T01:56:19.787Z,9.56
2023-02-13T02:00:06.619Z,9.46
2023-02-13T02:08:26.845Z,8.44
2023-02-13T02:12:21.261Z,8.26
2023-02-13T02:35:54.819Z,9.01
2023-02-13T02:47:55.632Z,8.35
2023-02-13T02:51:47.380Z,7.25
2023-02-13T02:56:06.433Z,7.18
2023-02-13T03:08:39.012Z,7.82
2023-02-13T03:27:05.192Z,8.30
2023-02-13T03:36:46.157Z,7.89
2023-02-13T03:47:03.899Z,8.85
2023-02-13T03:50:36.419Z,7.99
2023-02-13T04:01:43.416Z,7.82
2023-02-13T04:05:10.424Z,7.84
2023-02-13T04:08:23.594Z,8.15
2023-02-13T04:11:44.406Z,7.29
2023-02-13T04:14:52.460Z,7.86
2023-02-13T04:18:10.533Z,7.90
2023-02-13T04:21:10.212Z,8.09
2023-02-13T04:24:22.453Z,8.11
2023-02-13T04:28:06.425Z,8.43
2023-02-13T04:34:24.419Z,8.66
2023-02-13T04:37:30.969Z,8.05
2023-02-13T04:41:14.456Z,7.99
2023-02-13T04:44:23.254Z,8.27
2023-02-13T04:51:39.656Z,8.85
2023-02-13T04:54:51.710Z,8.25
2023-02-13T05:05:34.008Z,7.59
2023-02-13T05:08:40.376Z,8.37
2023-02-13T05:15:35.355Z,8.76
2023-02-13T05:22:48.084Z,8.76
2023-02-13T05:26:02.470Z,7.85
2023-02-13T05:33:09.884Z,8.05
2023-02-13T05:36:10.313Z,8.74
2023-02-13T05:39:14.402Z,8.65
2023-02-13T05:42:27.666Z,8.01
2023-02-13T05:45:48.788Z,7.55
2023-02-13T05:48:37.795Z,7.52
2023-02-13T05:51:39.346Z,8.61
2023-02-13T06:02:40.582Z,7.56
2023-02-13T06:05:52.954Z,8.46
2023-02-13T06:08:49.169Z,7.74
2023-02-13T06:11:19.671Z,8.40
2023-02-13T06:13:52.787Z,7.40
2023-02-13T06:16:34.476Z,7.17
2023-02-13T06:19:27.006Z,7.72
2023-02-13T06:22:03.300Z,7.89
2023-02-13T06:24:33.537Z,6.97
2023-02-13T06:27:11.280Z,7.42
2023-02-13T06:29:45.941Z,7.59
2023-02-13T06:32:18.530Z,8.02
2023-02-13T06:34:49.851Z,7.39
2023-02-13T06:37:30.011Z,7.88
2023-02-13T06:39:59.660Z,8.08
2023-02-13T06:42:38.576Z,7.19
2023-02-13T06:45:19.052Z,6.33
2023-02-13T06:47:51.954Z,7.58
2023-02-13T06:50:21.883Z,7.80
2023-02-13T06:52:52.862Z,7.28
2023-02-13T06:55:23.547Z,7.82
2023-02-13T06:57:53.591Z,8.05
2023-02-13T07:00:35.314Z,6.84
2023-02-13T07:03:10.113Z,8.04
2023-02-13T07:05:42.431Z,8.21
2023-02-13T07:08:56.308Z,8.03
2023-02-13T07:15:28.022Z,8.06
2023-02-13T07:18:11.091Z,7.69
2023-02-13T07:20:53.704Z,7.29
2023-02-13T07:23:33.721Z,8.44
2023-02-13T07:26:13.438Z,7.40
2023-02-13T07:29:10.484Z,7.82
2023-02-13T07:32:16.620Z,7.75
2023-02-13T07:35:02.078Z,8.44
2023-02-13T07:38:09.356Z,7.83
2023-02-13T07:45:08.762Z,7.46
2023-02-13T07:50:47.153Z,8.18
2023-02-13T07:53:29.096Z,8.53
2023-02-13T08:13:56.268Z,8.17
2023-02-13T08:41:55.970Z,8.65
2023-02-13T08:47:42.690Z,8.32
2023-02-13T09:25:50.610Z,9.71
2023-02-13T09:28:50.121Z,9.74
2023-02-13T10:29:11.441Z,9.29
2023-02-13T10:47:22.259Z,10.18
2023-02-13T11:28:26.722Z,11.42
2023-02-13T11:30:57.430Z,11.09
2023-02-13T11:33:30.880Z,11.38
2023-02-13T11:36:09.841Z,11.30
2023-02-13T11:38:39.794Z,11.18
2023-02-13T11:41:12.725Z,11.07
2023-02-13T11:43:51.261Z,11.04
2023-02-13T11:46:23.717Z,10.91
2023-02-13T11:49:02.414Z,10.75
2023-02-13T11:51:42.722Z,9.33
2023-02-13T11:54:27.463Z,10.47
2023-02-13T11:57:25.378Z,11.12
2023-02-13T12:01:05.623Z,9.51
2023-02-13T12:04:17.765Z,10.75
2023-02-13T12:07:16.702Z,10.42
2023-02-13T12:09:55.768Z,10.50
2023-02-13T12:15:20.982Z,11.57
2023-02-13T12:18:02.872Z,10.88
2023-02-13T12:20:39.134Z,11.47
2023-02-13T12:23:15.271Z,11.59
2023-02-13T12:26:01.300Z,11.51
2023-02-13T12:28:44.378Z,11.54
2023-02-13T12:31:33.175Z,11.67
2023-02-13T12:34:32.506Z,11.78
2023-02-13T12:37:15.996Z,11.88
2023-02-13T12:39:58.740Z,11.76
2023-02-13T12:42:43.864Z,11.72
2023-02-13T12:45:27.933Z,11.83
2023-02-13T12:48:24.446Z,11.66
2023-02-13T12:51:05.566Z,11.84
2023-02-13T12:53:55.499Z,11.59
2023-02-13T12:56:48.574Z,11.57
2023-02-13T12:59:28.462Z,11.75
2023-02-13T13:02:16.769Z,11.83
2023-02-13T13:05:01.232Z,11.78
2023-02-13T13:07:53.456Z,11.76
2023-02-13T13:10:38.181Z,11.66
2023-02-13T13:13:18.735Z,11.81
2023-02-13T13:16:02.404Z,11.86
2023-02-13T13:18:46.471Z,11.91
2023-02-13T13:21:41.807Z,12.17
2023-02-13T13:24:25.272Z,12.26
2023-02-13T13:26:57.469Z,11.71
2023-02-13T13:29:30.162Z,11.66
2023-02-13T13:32:03.845Z,11.77
2023-02-13T13:34:37.197Z,11.66
2023-02-13T13:37:17.048Z,11.64
2023-02-13T13:39:54.391Z,11.63
2023-02-13T13:42:34.380Z,11.69
2023-02-13T13:45:24.802Z,11.82
2023-02-13T13:48:12.598Z,11.90
2023-02-13T13:50:44.572Z,11.90
2023-02-13T13:53:19.461Z,11.74
2023-02-13T13:56:03.512Z,12.08
2023-02-13T13:58:40.255Z,12.13
2023-02-13T14:01:27.449Z,12.06
2023-02-13T14:03:58.168Z,12.13
2023-02-13T14:06:30.056Z,11.66
2023-02-13T14:09:06.296Z,11.36
2023-02-13T14:11:47.407Z,11.81
2023-02-13T14:14:53.407Z,11.39
2023-02-13T14:18:01.421Z,11.64
2023-02-13T14:20:41.134Z,11.61
2023-02-13T14:23:23.073Z,11.62
2023-02-13T14:26:13.798Z,11.07
2023-02-13T14:28:45.426Z,11.32
2023-02-13T14:31:27.506Z,11.42
2023-02-13T14:36:46.667Z,11.46
2023-02-13T14:39:47.844Z,10.32
2023-02-13T14:42:47.688Z,11.54
2023-02-13T14:45:29.429Z,10.64
2023-02-13T14:48:18.617Z,10.70
2023-02-13T14:51:31.432Z,10.70
2023-02-13T14:54:24.100Z,10.44
2023-02-13T14:57:10.158Z,11.04
2023-02-13T14:59:46.763Z,11.47
2023-02-13T15:02:21.588Z,11.20
2023-02-13T15:04:56.735Z,11.18
2023-02-13T15:07:30.274Z,11.41
2023-02-13T15:10:04.319Z,11.36
2023-02-13T15:12:36.537Z,11.23
2023-02-13T15:15:26.582Z,11.18
2023-02-13T15:17:59.741Z,11.29
2023-02-13T15:20:35.185Z,11.26
2023-02-13T15:23:06.734Z,11.16
2023-02-13T15:25:39.323Z,10.91
2023-02-13T15:28:11.171Z,10.89
2023-02-13T15:30:43.415Z,11.06
2023-02-13T15:33:20.940Z,10.94
2023-02-13T15:35:58.009Z,10.72
2023-02-13T15:38:31.895Z,10.81
2023-02-13T15:41:05.633Z,10.94
2023-02-13T15:43:38.280Z,10.92
2023-02-13T15:46:22.927Z,11.13
2023-02-13T15:48:53.322Z,11.01
2023-02-13T15:51:25.283Z,10.93
2023-02-13T15:53:55.713Z,11.09
2023-02-13T15:56:26.369Z,11.09
2023-02-13T15:58:58.499Z,11.04
2023-02-13T16:01:31.443Z,10.94
2023-02-13T16:04:05.526Z,11.13
2023-02-13T16:06:36.929Z,11.15
2023-02-13T16:09:07.184Z,11.03
2023-02-13T16:11:38.835Z,11.12
2023-02-13T16:14:18.518Z,10.92
2023-02-13T16:16:57.537Z,10.94
2023-02-13T16:19:31.195Z,10.72
2023-02-13T16:22:04.232Z,10.80
2023-02-13T16:24:34.307Z,10.79
2023-02-13T16:27:04.103Z,10.73
2023-02-13T16:29:33.860Z,10.55
2023-02-13T16:32:29.358Z,10.68
2023-02-13T16:35:00.053Z,10.47
2023-02-13T16:37:34.844Z,10.47
2023-02-13T16:40:45.643Z,10.35
2023-02-13T16:43:36.707Z,10.32
2023-02-13T16:46:34.209Z,10.25
2023-02-13T16:49:19.146Z,9.99
2023-02-13T16:51:53.140Z,9.96
2023-02-13T16:54:37.243Z,10.06
2023-02-13T16:57:32.693Z,10.04
2023-02-13T17:00:09.917Z,9.62
2023-02-13T17:02:41.531Z,9.58
2023-02-13T17:05:26.669Z,9.07
2023-02-13T17:07:59.661Z,8.94
2023-02-13T17:10:33.700Z,9.16
2023-02-13T17:13:06.148Z,9.72
2023-02-13T17:51:17.728Z,8.93
2023-02-13T18:02:55.346Z,8.60
2023-02-13T18:05:53.459Z,8.32
2023-02-13T18:08:23.141Z,8.28
2023-02-13T18:10:52.816Z,8.42
2023-02-13T18:13:22.427Z,8.19
2023-02-13T18:15:54.857Z,8.25
2023-02-13T18:18:24.594Z,7.93
2023-02-13T18:20:59.219Z,7.98
2023-02-13T18:23:30.268Z,7.96
2023-02-13T18:26:10.833Z,7.90
2023-02-13T18:28:40.596Z,7.84
2023-02-13T18:31:14.442Z,7.90
2023-02-13T18:33:44.106Z,7.76
2023-02-13T18:36:14.060Z,7.87
2023-02-13T18:38:43.724Z,7.62
2023-02-13T18:41:13.354Z,7.53
2023-02-13T18:43:42.986Z,7.74
2023-02-13T18:46:15.266Z,7.48
2023-02-13T18:48:44.962Z,7.32
2023-02-13T18:51:14.603Z,7.40
2023-02-13T18:53:44.241Z,7.36
2023-02-13T18:56:15.008Z,7.28
2023-02-13T18:58:44.658Z,7.34
2023-02-13T19:01:20.284Z,7.26
2023-02-13T19:03:50.859Z,7.14
2023-02-13T19:06:22.520Z,6.99
2023-02-13T19:08:52.648Z,7.12
2023-02-13T19:11:24.905Z,7.07
2023-02-13T19:13:57.094Z,7.15
2023-02-13T19:16:30.796Z,7.20
2023-02-13T19:19:04.380Z,6.86
2023-02-13T19:21:36.280Z,7.13
2023-02-13T19:24:08.707Z,6.90
2023-02-13T19:26:38.674Z,6.96
2023-02-13T19:29:08.286Z,6.77
2023-02-13T19:31:40.644Z,6.90
2023-02-13T19:34:10.311Z,6.85
2023-02-13T19:36:40.026Z,6.74
2023-02-13T19:39:10.038Z,6.88
2023-02-13T19:41:40.808Z,6.74
2023-02-13T19:44:11.099Z,6.86
2023-02-13T19:46:50.150Z,6.74
2023-02-13T19:49:22.356Z,6.60
2023-02-13T19:51:52.146Z,6.67
2023-02-13T19:54:21.852Z,6.44
2023-02-13T19:56:51.502Z,6.34
2023-02-13T19:59:21.188Z,6.27
2023-02-13T20:01:53.436Z,6.34
2023-02-13T20:04:23.093Z,6.30
2023-02-13T20:06:57.691Z,6.57
2023-02-13T20:09:27.473Z,6.53
2023-02-13T20:11:57.204Z,6.61
2023-02-13T20:14:26.852Z,6.50
2023-02-13T20:16:59.097Z,6.46
2023-02-13T20:19:28.769Z,6.45
2023-02-13T20:21:58.394Z,6.50
2023-02-13T20:24:28.073Z,6.53
2023-02-13T20:26:58.961Z,6.49
2023-02-13T20:29:29.110Z,6.41
2023-02-13T20:32:01.573Z,6.22
2023-02-13T20:34:37.647Z,6.20
2023-02-13T20:37:16.205Z,6.17
2023-02-13T20:39:45.857Z,5.94
2023-02-13T20:42:15.627Z,6.21
2023-02-13T20:44:47.045Z,5.84
2023-02-13T20:47:20.579Z,6.05
2023-02-13T20:49:50.849Z,6.24
2023-02-13T20:52:20.665Z,6.23
2023-02-13T20:54:50.351Z,6.15
2023-02-13T20:57:20.037Z,6.14
2023-02-13T20:59:49.678Z,6.20
2023-02-13T21:02:22.213Z,6.17
2023-02-13T21:04:52.668Z,6.23
2023-02-13T21:07:22.432Z,6.24
2023-02-13T21:09:52.091Z,5.91
2023-02-13T21:12:21.824Z,5.96
2023-02-13T21:14:51.508Z,6.14
2023-02-13T21:17:23.854Z,6.14
2023-02-13T21:19:53.696Z,6.10
2023-02-13T21:22:23.361Z,5.84
2023-02-13T21:24:53.344Z,6.10
2023-02-13T21:27:23.032Z,5.78
2023-02-13T21:29:52.810Z,5.94
2023-02-13T21:32:25.635Z,6.01
2023-02-13T21:34:57.428Z,5.81
2023-02-13T21:37:27.097Z,5.95
2023-02-13T21:39:56.809Z,5.72
2023-02-13T21:42:26.434Z,5.73
2023-02-13T21:44:56.091Z,5.58
2023-02-13T21:47:28.344Z,5.91
2023-02-13T21:49:58.017Z,5.73
2023-02-13T21:52:27.722Z,5.77
2023-02-13T21:54:57.314Z,5.70
2023-02-13T21:57:26.959Z,5.85
2023-02-13T21:59:57.212Z,5.52
2023-02-13T22:02:29.545Z,5.88
2023-02-13T22:04:59.242Z,5.75
2023-02-13T22:07:28.931Z,5.76
2023-02-13T22:09:58.782Z,5.46
2023-02-13T22:12:28.407Z,5.69
2023-02-13T22:14:58.011Z,5.51
2023-02-13T22:17:35.653Z,5.31
2023-02-13T22:20:06.123Z,5.62
2023-02-13T22:22:35.880Z,5.48
2023-02-13T22:25:05.597Z,5.29
2023-02-13T22:27:35.344Z,5.08
2023-02-13T22:30:06.830Z,5.23
2023-02-13T22:32:41.353Z,5.20
2023-02-13T22:35:11.333Z,5.25
2023-02-13T22:37:41.012Z,4.98
2023-02-13T22:40:11.373Z,5.35
2023-02-13T22:42:41.029Z,4.90
2023-02-13T22:45:11.867Z,5.40
2023-02-13T22:47:44.214Z,5.31
2023-02-13T22:50:13.962Z,5.42
2023-02-13T22:52:43.558Z,5.37
2023-02-13T22:55:13.495Z,5.44
2023-02-13T22:57:43.131Z,5.25
2023-02-13T23:00:15.841Z,5.35
2023-02-13T23:02:48.115Z,4.68
2023-02-13T23:05:18.151Z,5.45
2023-02-13T23:07:47.770Z,5.07
2023-02-13T23:10:18.998Z,5.36
2023-02-13T23:12:46.367Z,5.22
2023-02-13T23:15:17.422Z,5.19
2023-02-13T23:18:02.128Z,5.06
2023-02-13T23:20:31.823Z,5.10
2023-02-13T23:23:03.173Z,4.64
2023-02-13T23:25:34.313Z,5.08
2023-02-13T23:28:03.951Z,5.12
2023-02-13T23:30:33.916Z,5.00
2023-02-13T23:33:06.240Z,4.84
2023-02-13T23:35:35.894Z,4.94
2023-02-13T23:38:05.544Z,4.92
2023-02-13T23:40:35.153Z,4.99
2023-02-13T23:43:04.796Z,4.82
2023-02-13T23:45:34.410Z,4.88
2023-02-13T23:48:07.218Z,5.04
2023-02-13T23:50:36.836Z,4.77
2023-02-13T23:53:06.485Z,4.75
2023-02-13T23:55:36.108Z,4.84
2023-02-13T23:58:05.726Z,4.63
